createdAt,value
2019-04-26T00:00:41.402Z,14.20
2019-04-26T00:03:10.436Z,14.20
2019-04-26T00:05:38.400Z,14.30
2019-04-26T00:08:06.516Z,14.30
2019-04-26T00:10:35.685Z,14.30
2019-04-26T00:13:07.977Z,14.40
2019-04-26T00:15:46.172Z,14.40
2019-04-26T00:18:13.336Z,14.40
2019-04-26T00:20:40.370Z,14.40
2019-04-26T00:23:07.382Z,14.50
2019-04-26T00:25:34.440Z,14.40
2019-04-26T00:28:01.335Z,14.40
2019-04-26T00:30:28.382Z,14.40
2019-04-26T00:32:55.381Z,14.40
2019-04-26T00:35:22.406Z,14.40
2019-04-26T00:37:49.304Z,14.30
2019-04-26T00:40:16.279Z,14.30
2019-04-26T00:42:44.188Z,14.30
2019-04-26T00:45:11.105Z,14.20
2019-04-26T00:47:38.254Z,14.20
2019-04-26T00:50:06.664Z,14.20
2019-04-26T00:52:34.228Z,14.20
2019-04-26T00:55:01.311Z,14.20
2019-04-26T00:57:29.647Z,14.20
2019-04-26T00:59:57.136Z,14.20
2019-04-26T01:02:26.102Z,14.20
2019-04-26T01:04:54.386Z,14.20
2019-04-26T01:07:21.361Z,14.20
2019-04-26T01:09:48.404Z,14.20
2019-04-26T01:12:16.430Z,14.20
2019-04-26T01:14:43.916Z,14.20
2019-04-26T01:17:10.807Z,14.20
2019-04-26T01:19:39.465Z,14.10
2019-04-26T01:22:11.056Z,14.10
2019-04-26T01:24:41.866Z,14.00
2019-04-26T01:27:10.874Z,14.00
2019-04-26T01:29:37.841Z,13.90
2019-04-26T01:32:09.316Z,13.80
2019-04-26T01:34:38.696Z,13.70
2019-04-26T01:37:05.781Z,13.60
2019-04-26T01:39:35.220Z,13.50
2019-04-26T01:42:20.883Z,13.50
2019-04-26T01:44:53.468Z,13.50
2019-04-26T01:47:26.661Z,13.40
2019-04-26T01:49:54.140Z,13.40
2019-04-26T01:52:22.409Z,13.40
2019-04-26T01:54:49.569Z,13.30
2019-04-26T01:57:16.718Z,13.30
2019-04-26T01:59:50.073Z,13.40
2019-04-26T02:02:27.933Z,13.40
2019-04-26T02:04:57.805Z,13.50
2019-04-26T02:07:40.816Z,13.50
2019-04-26T02:10:17.416Z,13.50
2019-04-26T02:12:46.301Z,13.50
2019-04-26T02:15:14.617Z,13.50
2019-04-26T02:17:42.690Z,13.40
2019-04-26T02:20:10.384Z,13.40
2019-04-26T02:22:55.897Z,13.30
2019-04-26T02:25:24.551Z,13.30
2019-04-26T02:27:51.573Z,13.40
2019-04-26T02:30:18.747Z,13.40
2019-04-26T02:32:45.754Z,13.30
2019-04-26T02:35:12.772Z,13.30
2019-04-26T02:37:40.056Z,13.30
2019-04-26T02:40:12.147Z,13.30
2019-04-26T02:42:41.461Z,13.40
2019-04-26T02:45:43.920Z,13.40
2019-04-26T02:48:16.929Z,13.50
2019-04-26T02:50:57.827Z,13.50
2019-04-26T02:53:38.696Z,13.60
2019-04-26T02:56:25.928Z,13.60
2019-04-26T02:59:32.348Z,13.60
2019-04-26T03:02:02.654Z,13.70
2019-04-26T03:04:32.284Z,13.70
2019-04-26T03:07:04.169Z,13.70
2019-04-26T03:09:35.073Z,13.70
2019-04-26T03:12:08.033Z,13.70
2019-04-26T03:15:12.768Z,13.70
2019-04-26T03:17:37.547Z,13.70
2019-04-26T03:20:10.677Z,13.80
2019-04-26T03:23:18.429Z,13.80
2019-04-26T03:26:31.596Z,13.80
2019-04-26T03:29:23.573Z,13.80
2019-04-26T03:32:05.842Z,13.80
2019-04-26T03:34:53.574Z,13.80
2019-04-26T03:37:34.543Z,13.80
2019-04-26T03:40:13.740Z,13.80
2019-04-26T03:42:58.019Z,13.80
2019-04-26T03:45:43.127Z,13.80
2019-04-26T03:48:44.511Z,13.80
2019-04-26T03:51:19.882Z,13.80
2019-04-26T03:54:00.427Z,13.80
2019-04-26T03:56:48.135Z,13.80
2019-04-26T03:59:38.278Z,13.80
2019-04-26T04:02:11.041Z,13.80
2019-04-26T04:04:50.829Z,13.80
2019-04-26T04:07:36.050Z,13.80
2019-04-26T04:09:58.010Z,13.80
2019-04-26T04:12:45.795Z,13.80
2019-04-26T04:15:18.782Z,13.80
2019-04-26T04:17:58.177Z,13.70
2019-04-26T04:20:40.385Z,13.70
2019-04-26T04:23:42.765Z,13.70
2019-04-26T04:26:13.752Z,13.80
2019-04-26T04:29:14.117Z,13.80
2019-04-26T04:31:46.266Z,13.80
2019-04-26T04:34:13.333Z,13.80
2019-04-26T04:36:48.868Z,13.70
2019-04-26T04:39:21.776Z,13.70
2019-04-26T04:42:24.301Z,13.70
2019-04-26T04:45:25.717Z,13.70
2019-04-26T04:48:18.971Z,13.80
2019-04-26T04:50:57.433Z,13.80
2019-04-26T04:53:57.958Z,13.80
2019-04-26T04:56:43.933Z,13.70
2019-04-26T04:59:18.213Z,13.70
2019-04-26T05:02:24.114Z,13.70
2019-04-26T05:05:18.329Z,13.70
2019-04-26T05:08:08.303Z,13.60
2019-04-26T05:10:44.302Z,13.70
2019-04-26T05:13:26.038Z,13.70
2019-04-26T05:16:40.473Z,13.70
2019-04-26T05:19:57.741Z,13.70
2019-04-26T05:22:49.348Z,13.70
2019-04-26T05:26:09.143Z,13.70
2019-04-26T05:29:05.688Z,13.70
2019-04-26T05:31:48.662Z,13.80
2019-04-26T05:34:44.820Z,13.70
2019-04-26T05:37:37.115Z,13.80
2019-04-26T05:40:14.559Z,13.80
2019-04-26T05:43:11.725Z,13.80
2019-04-26T05:46:28.226Z,13.80
2019-04-26T05:49:47.213Z,13.80
2019-04-26T05:53:10.216Z,13.70
2019-04-26T05:56:10.541Z,13.70
2019-04-26T05:59:04.703Z,13.70
2019-04-26T06:02:15.538Z,13.70
2019-04-26T06:05:04.247Z,13.70
2019-04-26T06:08:03.205Z,13.70
2019-04-26T06:10:37.087Z,13.70
2019-04-26T06:13:46.471Z,13.70
2019-04-26T06:16:26.500Z,13.70
2019-04-26T06:19:21.721Z,13.70
2019-04-26T06:22:14.698Z,13.60
2019-04-26T06:24:58.229Z,13.50
2019-04-26T06:27:49.749Z,13.50
2019-04-26T06:30:29.077Z,13.50
2019-04-26T06:33:29.278Z,13.50
2019-04-26T06:36:01.690Z,13.50
2019-04-26T06:39:18.504Z,13.50
2019-04-26T06:42:48.186Z,13.60
2019-04-26T06:45:38.548Z,13.60
2019-04-26T06:48:29.706Z,13.80
2019-04-26T06:51:04.965Z,14.00
2019-04-26T06:54:13.839Z,14.30
2019-04-26T06:57:30.472Z,14.50
2019-04-26T07:00:26.124Z,14.60
2019-04-26T07:03:25.303Z,14.70
2019-04-26T07:05:59.033Z,14.60
2019-04-26T07:08:41.042Z,14.50
2019-04-26T07:11:50.281Z,14.50
2019-04-26T07:14:54.288Z,14.40
2019-04-26T07:17:57.709Z,14.30
2019-04-26T07:20:32.936Z,14.30
2019-04-26T07:23:34.034Z,14.20
2019-04-26T07:26:45.665Z,14.20
2019-04-26T07:30:05.324Z,14.20
2019-04-26T07:32:59.847Z,14.10
2019-04-26T07:35:49.262Z,14.00
2019-04-26T07:39:10.550Z,13.90
2019-04-26T07:42:07.323Z,13.90
2019-04-26T07:45:02.207Z,13.90
2019-04-26T07:48:16.751Z,14.00
2019-04-26T07:51:31.871Z,14.00
2019-04-26T07:54:43.627Z,13.90
2019-04-26T07:57:46.265Z,14.00
2019-04-26T08:00:20.037Z,14.00
2019-04-26T08:02:52.168Z,14.00
2019-04-26T08:05:32.733Z,14.10
2019-04-26T08:08:05.879Z,14.10
2019-04-26T08:10:37.582Z,14.10
2019-04-26T08:13:08.460Z,14.10
2019-04-26T08:15:54.914Z,14.20
2019-04-26T08:18:28.267Z,14.10
2019-04-26T08:21:02.532Z,14.10
2019-04-26T08:23:42.001Z,14.10
2019-04-26T08:26:11.650Z,14.10
2019-04-26T08:28:41.296Z,14.20
2019-04-26T08:31:15.440Z,14.30
2019-04-26T08:33:48.948Z,14.30
2019-04-26T08:36:18.489Z,14.30
2019-04-26T08:38:48.845Z,14.40
2019-04-26T08:41:21.015Z,14.40
2019-04-26T08:44:09.771Z,14.30
2019-04-26T08:46:40.851Z,14.30
2019-04-26T08:49:18.629Z,14.30
2019-04-26T08:51:46.664Z,14.30
2019-04-26T08:54:21.609Z,14.30
2019-04-26T08:56:56.114Z,14.30
2019-04-26T08:59:26.098Z,14.40
2019-04-26T09:02:05.731Z,14.30
2019-04-26T09:04:37.112Z,14.30
2019-04-26T09:07:11.894Z,14.20
2019-04-26T09:09:41.946Z,14.10
2019-04-26T09:12:22.907Z,14.10
2019-04-26T09:14:51.123Z,14.10
2019-04-26T09:17:19.362Z,14.10
2019-04-26T09:19:46.955Z,14.10
2019-04-26T09:22:15.908Z,14.10
2019-04-26T09:24:47.741Z,14.10
2019-04-26T09:27:17.146Z,14.10
2019-04-26T09:29:47.444Z,14.20
2019-04-26T09:32:16.459Z,14.30
2019-04-26T09:34:43.743Z,14.30
2019-04-26T09:37:11.049Z,14.30
2019-04-26T09:39:41.708Z,14.30
2019-04-26T09:42:11.873Z,14.40
2019-04-26T09:44:46.869Z,14.40
2019-04-26T09:47:21.629Z,14.40
2019-04-26T09:49:50.505Z,14.40
2019-04-26T09:52:22.356Z,14.50
2019-04-26T09:54:49.426Z,14.60
2019-04-26T09:57:16.321Z,14.70
2019-04-26T09:59:43.378Z,14.90
2019-04-26T10:02:11.265Z,15.00
2019-04-26T10:04:38.335Z,15.20
2019-04-26T10:07:05.482Z,15.30
2019-04-26T10:09:32.831Z,15.40
2019-04-26T10:12:01.711Z,15.40
2019-04-26T10:14:36.571Z,15.40
2019-04-26T10:17:11.533Z,15.40
2019-04-26T10:19:54.194Z,15.30
2019-04-26T10:22:23.367Z,15.20
2019-04-26T10:24:50.715Z,15.30
2019-04-26T10:27:17.913Z,15.20
2019-04-26T10:29:45.448Z,15.10
2019-04-26T10:32:12.702Z,15.10
2019-04-26T10:34:42.694Z,15.20
2019-04-26T10:37:08.719Z,15.10
2019-04-26T10:39:37.035Z,15.10
2019-04-26T10:42:04.233Z,15.00
2019-04-26T10:44:31.386Z,14.90
2019-04-26T10:46:59.899Z,14.90
2019-04-26T10:49:38.447Z,14.80
2019-04-26T10:52:11.896Z,14.80
2019-04-26T10:54:41.034Z,14.80
2019-04-26T10:57:10.287Z,14.70
2019-04-26T10:59:44.219Z,14.80
2019-04-26T11:02:13.118Z,14.80
2019-04-26T11:04:41.411Z,15.00
2019-04-26T11:07:09.017Z,15.20
2019-04-26T11:09:36.038Z,15.50
2019-04-26T11:12:04.441Z,15.60
2019-04-26T11:14:31.399Z,15.80
2019-04-26T11:16:58.400Z,15.90
2019-04-26T11:19:25.618Z,16.00
2019-04-26T11:21:54.751Z,16.00
2019-04-26T11:24:21.541Z,16.10
2019-04-26T11:26:49.359Z,16.10
2019-04-26T11:29:16.246Z,16.30
2019-04-26T11:31:43.346Z,16.20
2019-04-26T11:34:10.442Z,16.20
2019-04-26T11:36:41.293Z,16.20
2019-04-26T11:39:07.474Z,16.10
2019-04-26T11:41:37.622Z,15.90
2019-04-26T11:44:05.367Z,15.80
2019-04-26T11:46:43.959Z,15.70
2019-04-26T11:49:03.264Z,15.60
2019-04-26T11:51:32.958Z,15.60
2019-04-26T11:53:59.955Z,15.60
2019-04-26T11:56:27.112Z,15.70
2019-04-26T11:58:56.761Z,15.70
2019-04-26T12:01:24.944Z,15.60
2019-04-26T12:04:10.448Z,15.60
2019-04-26T12:06:39.392Z,15.60
2019-04-26T12:09:08.956Z,15.50
2019-04-26T12:11:35.917Z,15.40
2019-04-26T12:14:04.064Z,15.50
2019-04-26T12:16:31.284Z,15.60
2019-04-26T12:18:58.246Z,15.70
2019-04-26T12:21:25.207Z,15.80
2019-04-26T12:23:55.468Z,15.90
2019-04-26T12:26:23.116Z,15.90
2019-04-26T12:28:50.435Z,16.00
2019-04-26T12:31:17.538Z,15.90
2019-04-26T12:33:45.208Z,15.80
2019-04-26T12:36:13.454Z,15.60
2019-04-26T12:38:41.421Z,15.40
2019-04-26T12:41:11.377Z,15.30
2019-04-26T12:43:37.949Z,15.20
2019-04-26T12:46:22.690Z,15.20
2019-04-26T12:48:49.931Z,15.20
2019-04-26T12:51:16.670Z,15.10
2019-04-26T12:53:43.629Z,15.10
2019-04-26T12:56:10.665Z,15.10
2019-04-26T12:58:39.152Z,15.10
2019-04-26T13:01:12.259Z,15.10
2019-04-26T13:03:36.970Z,15.20
2019-04-26T13:06:04.028Z,15.20
2019-04-26T13:08:31.078Z,15.30
2019-04-26T13:11:15.082Z,15.40
2019-04-26T13:13:56.350Z,15.50
2019-04-26T13:16:28.308Z,15.50
2019-04-26T13:18:55.188Z,15.60
2019-04-26T13:21:22.094Z,15.70
2019-04-26T13:23:49.016Z,15.70
2019-04-26T13:26:16.069Z,15.70
2019-04-26T13:28:43.046Z,15.80
2019-04-26T13:31:10.461Z,15.80
2019-04-26T13:33:37.450Z,15.80
2019-04-26T13:36:05.000Z,15.90
2019-04-26T13:38:32.004Z,16.00
2019-04-26T13:40:59.607Z,16.10
2019-04-26T13:43:28.758Z,16.10
2019-04-26T13:46:14.671Z,16.20
2019-04-26T13:48:45.321Z,16.40
2019-04-26T13:51:14.337Z,16.50
2019-04-26T13:53:41.283Z,16.60
2019-04-26T13:56:09.972Z,16.60
2019-04-26T13:58:36.912Z,16.60
2019-04-26T14:01:04.441Z,16.60
2019-04-26T14:03:33.309Z,16.70
2019-04-26T14:06:00.388Z,16.80
2019-04-26T14:08:27.382Z,16.90
2019-04-26T14:10:54.363Z,16.90
2019-04-26T14:13:24.926Z,17.00
2019-04-26T14:15:52.028Z,17.00
2019-04-26T14:18:19.489Z,17.10
2019-04-26T14:20:46.480Z,17.20
2019-04-26T14:23:21.507Z,17.20
2019-04-26T14:25:55.566Z,17.20
2019-04-26T14:28:23.877Z,17.20
2019-04-26T14:30:52.280Z,17.20
2019-04-26T14:33:19.215Z,17.10
2019-04-26T14:35:46.384Z,17.00
2019-04-26T14:38:27.285Z,16.90
2019-04-26T14:40:46.042Z,16.90
2019-04-26T14:43:13.085Z,16.90
2019-04-26T14:45:41.250Z,16.80
2019-04-26T14:48:20.187Z,16.90
2019-04-26T14:50:37.374Z,16.90
2019-04-26T14:53:04.515Z,16.80
2019-04-26T14:55:31.413Z,16.80
2019-04-26T14:57:58.518Z,16.80
2019-04-26T15:00:27.460Z,16.70
2019-04-26T15:03:05.400Z,16.70
2019-04-26T15:05:34.295Z,16.80
2019-04-26T15:08:03.910Z,16.70
2019-04-26T15:10:43.871Z,16.70
2019-04-26T15:13:14.968Z,16.70
2019-04-26T15:15:34.638Z,16.80
2019-04-26T15:18:03.252Z,16.80
2019-04-26T15:20:30.417Z,16.80
2019-04-26T15:22:57.424Z,16.80
2019-04-26T15:25:24.347Z,16.80
2019-04-26T15:27:52.496Z,16.90
2019-04-26T15:30:22.060Z,16.90
2019-04-26T15:32:50.442Z,17.00
2019-04-26T15:35:17.956Z,16.90
2019-04-26T15:37:45.370Z,16.90
2019-04-26T15:40:35.091Z,16.90
2019-04-26T15:43:14.310Z,17.00
2019-04-26T15:45:42.310Z,17.00
2019-04-26T15:48:12.161Z,17.00
2019-04-26T15:50:50.136Z,17.00
2019-04-26T15:53:14.443Z,17.00
2019-04-26T15:55:41.437Z,17.00
2019-04-26T15:58:09.390Z,17.10
2019-04-26T16:00:36.689Z,17.10
2019-04-26T16:03:07.360Z,17.10
2019-04-26T16:05:32.863Z,17.10
2019-04-26T16:08:01.847Z,17.10
2019-04-26T16:10:29.577Z,17.10
2019-04-26T16:13:01.283Z,17.10
2019-04-26T16:15:26.668Z,17.10
2019-04-26T16:17:53.720Z,17.00
2019-04-26T16:20:22.046Z,17.00
2019-04-26T16:22:49.353Z,16.90
2019-04-26T16:25:16.482Z,16.90
2019-04-26T16:27:44.609Z,16.80
2019-04-26T16:30:32.942Z,16.70
2019-04-26T16:33:10.164Z,16.70
2019-04-26T16:35:37.300Z,16.60
2019-04-26T16:38:06.934Z,16.60
2019-04-26T16:40:35.024Z,16.50
2019-04-26T16:43:04.195Z,16.50
2019-04-26T16:45:32.691Z,16.50
2019-04-26T16:47:59.830Z,16.40
2019-04-26T16:50:31.616Z,16.40
2019-04-26T16:52:55.875Z,16.40
2019-04-26T16:55:24.704Z,16.30
2019-04-26T16:57:55.596Z,16.30
2019-04-26T17:00:31.913Z,16.30
2019-04-26T17:02:52.735Z,16.20
2019-04-26T17:05:28.876Z,16.20
2019-04-26T17:07:48.842Z,16.20
2019-04-26T17:10:16.574Z,16.10
2019-04-26T17:12:46.237Z,16.00
2019-04-26T17:15:17.383Z,16.00
2019-04-26T17:17:45.226Z,16.00
2019-04-26T17:20:12.190Z,15.90
2019-04-26T17:22:45.440Z,15.90
2019-04-26T17:25:17.067Z,15.90
2019-04-26T17:27:45.925Z,15.80
2019-04-26T17:30:15.091Z,15.80
2019-04-26T17:32:43.736Z,15.80
2019-04-26T17:35:11.167Z,15.80
2019-04-26T17:37:38.549Z,15.80
2019-04-26T17:40:06.289Z,15.80
2019-04-26T17:42:36.324Z,15.70
2019-04-26T17:45:06.769Z,15.70
2019-04-26T17:47:34.643Z,15.70
2019-04-26T17:50:04.561Z,15.70
2019-04-26T17:52:36.173Z,15.70
2019-04-26T17:55:01.666Z,15.60
2019-04-26T17:57:34.871Z,15.60
2019-04-26T18:00:07.174Z,15.60
2019-04-26T18:02:41.443Z,15.60
2019-04-26T18:05:00.597Z,15.50
2019-04-26T18:07:39.717Z,15.50
2019-04-26T18:09:56.982Z,15.50
2019-04-26T18:12:24.532Z,15.40
2019-04-26T18:14:51.558Z,15.40
2019-04-26T18:17:20.642Z,15.40
2019-04-26T18:20:00.569Z,15.30
2019-04-26T18:22:34.687Z,15.30
2019-04-26T18:24:59.272Z,15.20
2019-04-26T18:27:29.876Z,15.20
2019-04-26T18:29:55.379Z,15.20
2019-04-26T18:32:24.363Z,15.20
2019-04-26T18:34:53.495Z,15.10
2019-04-26T18:37:20.824Z,15.10
2019-04-26T18:39:50.731Z,15.10
2019-04-26T18:42:17.713Z,15.00
2019-04-26T18:44:47.948Z,15.00
2019-04-26T18:47:20.413Z,15.00
2019-04-26T18:49:44.511Z,15.00
2019-04-26T18:52:13.632Z,14.90
2019-04-26T18:54:43.727Z,14.90
2019-04-26T18:57:15.663Z,14.90
2019-04-26T18:59:44.777Z,14.80
2019-04-26T19:02:11.570Z,14.80
2019-04-26T19:04:41.820Z,14.70
2019-04-26T19:07:08.310Z,14.70
2019-04-26T19:09:56.836Z,14.60
2019-04-26T19:12:06.074Z,14.50
2019-04-26T19:15:03.002Z,14.50
2019-04-26T19:17:29.828Z,14.50
2019-04-26T19:20:02.093Z,14.50
2019-04-26T19:22:29.443Z,14.50
2019-04-26T19:24:59.764Z,14.50
2019-04-26T19:27:28.292Z,14.40
2019-04-26T19:29:55.669Z,14.40
2019-04-26T19:32:23.743Z,14.40
2019-04-26T19:34:52.492Z,14.40
2019-04-26T19:37:19.930Z,14.30
2019-04-26T19:39:50.039Z,14.30
2019-04-26T19:42:17.587Z,14.30
2019-04-26T19:44:44.973Z,14.30
2019-04-26T19:47:14.579Z,14.30
2019-04-26T19:49:54.041Z,14.20
2019-04-26T19:52:27.200Z,14.20
2019-04-26T19:54:56.560Z,14.20
2019-04-26T19:57:27.052Z,14.10
2019-04-26T19:59:54.301Z,14.00
2019-04-26T20:02:22.342Z,14.00
2019-04-26T20:04:51.746Z,13.90
2019-04-26T20:07:18.797Z,13.90
2019-04-26T20:09:45.669Z,13.90
2019-04-26T20:12:12.732Z,13.80
2019-04-26T20:14:49.186Z,13.70
2019-04-26T20:17:13.136Z,13.50
2019-04-26T20:19:42.980Z,13.40
2019-04-26T20:22:10.195Z,13.30
2019-04-26T20:24:37.189Z,13.30
2019-04-26T20:27:04.208Z,13.20
2019-04-26T20:29:32.341Z,13.10
2019-04-26T20:32:02.236Z,13.20
2019-04-26T20:34:32.036Z,13.20
2019-04-26T20:37:01.580Z,13.20
2019-04-26T20:39:28.706Z,13.20
2019-04-26T20:42:02.029Z,13.30
2019-04-26T20:44:46.058Z,13.30
2019-04-26T20:46:58.179Z,13.30
2019-04-26T20:49:25.743Z,13.30
2019-04-26T20:51:52.979Z,13.30
2019-04-26T20:54:20.046Z,13.30
2019-04-26T20:56:52.631Z,13.20
2019-04-26T20:59:16.762Z,13.10
2019-04-26T21:01:46.609Z,13.00
2019-04-26T21:04:33.889Z,13.00
2019-04-26T21:06:42.967Z,12.90
2019-04-26T21:09:11.982Z,12.90
2019-04-26T21:11:39.253Z,12.90
2019-04-26T21:14:07.661Z,12.90
2019-04-26T21:16:35.293Z,12.80
2019-04-26T21:19:02.740Z,12.80
2019-04-26T21:21:31.901Z,12.80
2019-04-26T21:24:01.534Z,12.80
2019-04-26T21:26:38.982Z,12.70
2019-04-26T21:29:26.357Z,12.70
2019-04-26T21:32:01.077Z,12.70
2019-04-26T21:34:33.288Z,12.60
2019-04-26T21:37:22.180Z,12.60
2019-04-26T21:39:54.004Z,12.60
2019-04-26T21:42:25.476Z,12.60
2019-04-26T21:44:52.652Z,12.60
2019-04-26T21:47:19.486Z,12.60
2019-04-26T21:49:52.658Z,12.60
2019-04-26T21:52:17.472Z,12.60
2019-04-26T21:54:48.453Z,12.60
2019-04-26T21:57:13.448Z,12.60
2019-04-26T21:59:41.956Z,12.60
2019-04-26T22:02:09.315Z,12.60
2019-04-26T22:04:37.732Z,12.60
2019-04-26T22:07:07.632Z,12.60
2019-04-26T22:09:38.676Z,12.50
2019-04-26T22:12:07.608Z,12.50
2019-04-26T22:14:36.659Z,12.50
2019-04-26T22:17:22.632Z,12.50
2019-04-26T22:19:57.365Z,12.40
2019-04-26T22:22:29.000Z,12.40
2019-04-26T22:24:57.895Z,12.40
2019-04-26T22:27:25.267Z,12.30
2019-04-26T22:29:53.378Z,12.30
2019-04-26T22:32:22.928Z,12.30
2019-04-26T22:34:50.076Z,12.30
2019-04-26T22:37:29.224Z,12.20
2019-04-26T22:39:47.757Z,12.20
2019-04-26T22:42:17.894Z,12.20
2019-04-26T22:45:04.916Z,12.30
2019-04-26T22:47:42.747Z,12.30
2019-04-26T22:50:15.647Z,12.30
2019-04-26T22:52:39.070Z,12.30
2019-04-26T22:55:06.212Z,12.30
2019-04-26T22:57:33.460Z,12.40
2019-04-26T23:00:00.645Z,12.30
2019-04-26T23:02:29.068Z,12.30
2019-04-26T23:05:00.164Z,12.30
2019-04-26T23:07:26.740Z,12.30
2019-04-26T23:09:55.494Z,12.30
2019-04-26T23:12:28.320Z,12.30
2019-04-26T23:15:13.388Z,12.20
2019-04-26T23:17:45.230Z,12.20
2019-04-26T23:20:16.672Z,12.20
2019-04-26T23:22:47.775Z,12.20
2019-04-26T23:25:14.729Z,12.20
2019-04-26T23:27:43.441Z,12.10
2019-04-26T23:30:13.018Z,12.10
2019-04-26T23:32:40.195Z,12.10
2019-04-26T23:35:09.144Z,12.10
2019-04-26T23:37:36.169Z,12.00
2019-04-26T23:40:03.964Z,12.00
2019-04-26T23:42:31.070Z,11.90
2019-04-26T23:44:57.987Z,11.90
2019-04-26T23:47:25.610Z,12.00
2019-04-26T23:49:53.962Z,11.90
2019-04-26T23:52:23.146Z,12.00
2019-04-26T23:54:50.488Z,12.00
2019-04-26T23:57:17.352Z,12.00
2019-04-26T23:59:45.372Z,12.00
